sensor_id;sensor_type;location;lat;lon;timestamp;P1;durP1;ratioP1;P2;durP2;ratioP2
651;SDS011;310;48.490;9.200;2023-04-09T00:01:45;2.20;;;1.60;;
651;SDS011;310;48.490;9.200;2023-04-09T00:04:11;2.47;;;1.47;;
651;SDS011;310;48.490;9.200;2023-04-09T00:06:37;1.97;;;1.17;;
651;SDS011;310;48.490;9.200;2023-04-09T00:09:02;2.93;;;1.60;;
651;SDS011;310;48.490;9.200;2023-04-09T00:11:28;1.90;;;1.20;;
651;SDS011;310;48.490;9.200;2023-04-09T00:13:53;2.30;;;1.40;;
651;SDS011;310;48.490;9.200;2023-04-09T00:16:19;1.97;;;1.30;;
651;SDS011;310;48.490;9.200;2023-04-09T00:18:45;2.40;;;1.43;;
651;SDS011;310;48.490;9.200;2023-04-09T00:21:11;2.13;;;1.40;;
651;SDS011;310;48.490;9.200;2023-04-09T00:23:37;2.00;;;1.40;;
651;SDS011;310;48.490;9.200;2023-04-09T00:26:02;2.47;;;1.60;;
651;SDS011;310;48.490;9.200;2023-04-09T00:28:28;2.00;;;1.23;;
651;SDS011;310;48.490;9.200;2023-04-09T00:30:53;1.90;;;1.20;;
651;SDS011;310;48.490;9.200;2023-04-09T00:33:19;1.87;;;1.10;;
651;SDS011;310;48.490;9.200;2023-04-09T00:35:45;2.00;;;1.20;;
651;SDS011;310;48.490;9.200;2023-04-09T00:38:10;2.07;;;1.30;;
651;SDS011;310;48.490;9.200;2023-04-09T00:40:36;2.13;;;1.40;;
651;SDS011;310;48.490;9.200;2023-04-09T00:43:02;1.87;;;1.10;;
651;SDS011;310;48.490;9.200;2023-04-09T00:45:27;2.17;;;1.40;;
651;SDS011;310;48.490;9.200;2023-04-09T00:47:53;2.10;;;1.33;;
651;SDS011;310;48.490;9.200;2023-04-09T00:50:18;2.20;;;1.40;;
651;SDS011;310;48.490;9.200;2023-04-09T00:52:45;1.90;;;1.20;;
651;SDS011;310;48.490;9.200;2023-04-09T00:55:11;2.07;;;1.37;;
651;SDS011;310;48.490;9.200;2023-04-09T00:57:37;2.10;;;1.40;;
651;SDS011;310;48.490;9.200;2023-04-09T01:00:03;2.00;;;1.30;;
651;SDS011;310;48.490;9.200;2023-04-09T01:02:31;2.00;;;1.27;;
651;SDS011;310;48.490;9.200;2023-04-09T01:04:57;2.10;;;1.30;;
651;SDS011;310;48.490;9.200;2023-04-09T01:10:00;2.43;;;2.00;;
651;SDS011;310;48.490;9.200;2023-04-09T01:15:46;2.00;;;1.33;;
651;SDS011;310;48.490;9.200;2023-04-09T01:18:18;2.10;;;1.40;;
651;SDS011;310;48.490;9.200;2023-04-09T01:20:49;2.60;;;1.40;;
651;SDS011;310;48.490;9.200;2023-04-09T01:26:21;1.80;;;1.10;;
651;SDS011;310;48.490;9.200;2023-04-09T01:29:09;1.90;;;1.10;;
651;SDS011;310;48.490;9.200;2023-04-09T01:31:36;1.90;;;1.23;;
651;SDS011;310;48.490;9.200;2023-04-09T01:34:04;3.20;;;1.93;;
651;SDS011;310;48.490;9.200;2023-04-09T01:36:32;2.17;;;1.40;;
651;SDS011;310;48.490;9.200;2023-04-09T01:39:00;2.40;;;1.60;;
651;SDS011;310;48.490;9.200;2023-04-09T01:41:26;2.00;;;1.23;;
651;SDS011;310;48.490;9.200;2023-04-09T01:43:54;2.00;;;1.40;;
651;SDS011;310;48.490;9.200;2023-04-09T01:46:21;1.97;;;1.27;;
651;SDS011;310;48.490;9.200;2023-04-09T01:48:47;2.30;;;1.53;;
651;SDS011;310;48.490;9.200;2023-04-09T01:51:14;2.10;;;1.40;;
651;SDS011;310;48.490;9.200;2023-04-09T01:53:40;2.10;;;1.33;;
651;SDS011;310;48.490;9.200;2023-04-09T01:56:06;1.90;;;1.20;;
651;SDS011;310;48.490;9.200;2023-04-09T01:58:32;2.67;;;1.70;;
651;SDS011;310;48.490;9.200;2023-04-09T02:01:00;2.03;;;1.30;;
651;SDS011;310;48.490;9.200;2023-04-09T02:04:12;2.37;;;1.50;;
651;SDS011;310;48.490;9.200;2023-04-09T02:07:00;3.30;;;1.97;;
651;SDS011;310;48.490;9.200;2023-04-09T02:09:49;2.30;;;1.50;;
651;SDS011;310;48.490;9.200;2023-04-09T02:12:18;2.10;;;1.30;;
651;SDS011;310;48.490;9.200;2023-04-09T02:14:45;2.47;;;1.50;;
651;SDS011;310;48.490;9.200;2023-04-09T02:17:12;2.20;;;1.40;;
651;SDS011;310;48.490;9.200;2023-04-09T02:19:38;2.20;;;1.40;;
651;SDS011;310;48.490;9.200;2023-04-09T02:22:04;2.43;;;1.40;;
651;SDS011;310;48.490;9.200;2023-04-09T02:24:30;2.00;;;1.40;;
651;SDS011;310;48.490;9.200;2023-04-09T02:26:56;2.03;;;1.30;;
651;SDS011;310;48.490;9.200;2023-04-09T02:29:21;1.90;;;1.10;;
651;SDS011;310;48.490;9.200;2023-04-09T02:31:47;2.20;;;1.50;;
651;SDS011;310;48.490;9.200;2023-04-09T02:34:14;2.60;;;2.00;;
651;SDS011;310;48.490;9.200;2023-04-09T02:36:39;1.90;;;1.20;;
651;SDS011;310;48.490;9.200;2023-04-09T02:39:05;2.13;;;1.50;;
651;SDS011;310;48.490;9.200;2023-04-09T02:41:31;2.13;;;1.37;;
651;SDS011;310;48.490;9.200;2023-04-09T02:43:56;2.00;;;1.30;;
651;SDS011;310;48.490;9.200;2023-04-09T02:46:22;2.00;;;1.30;;
651;SDS011;310;48.490;9.200;2023-04-09T02:48:47;2.50;;;1.63;;
651;SDS011;310;48.490;9.200;2023-04-09T02:51:13;2.10;;;1.43;;
651;SDS011;310;48.490;9.200;2023-04-09T02:53:39;2.00;;;1.27;;
651;SDS011;310;48.490;9.200;2023-04-09T02:56:05;2.00;;;1.30;;
651;SDS011;310;48.490;9.200;2023-04-09T02:58:30;2.10;;;1.40;;
651;SDS011;310;48.490;9.200;2023-04-09T03:00:56;2.03;;;1.27;;
651;SDS011;310;48.490;9.200;2023-04-09T03:03:21;2.13;;;1.40;;
651;SDS011;310;48.490;9.200;2023-04-09T03:05:47;2.07;;;1.27;;
651;SDS011;310;48.490;9.200;2023-04-09T03:08:13;2.10;;;1.30;;
651;SDS011;310;48.490;9.200;2023-04-09T03:10:39;1.90;;;1.20;;
651;SDS011;310;48.490;9.200;2023-04-09T03:13:05;2.00;;;1.20;;
651;SDS011;310;48.490;9.200;2023-04-09T03:15:31;2.07;;;1.33;;
651;SDS011;310;48.490;9.200;2023-04-09T03:17:56;2.00;;;1.20;;
651;SDS011;310;48.490;9.200;2023-04-09T03:20:22;2.00;;;1.27;;
651;SDS011;310;48.490;9.200;2023-04-09T03:22:47;2.60;;;1.93;;
651;SDS011;310;48.490;9.200;2023-04-09T03:25:13;2.00;;;1.30;;
651;SDS011;310;48.490;9.200;2023-04-09T03:27:38;2.40;;;1.47;;
651;SDS011;310;48.490;9.200;2023-04-09T03:30:04;2.03;;;1.30;;
651;SDS011;310;48.490;9.200;2023-04-09T03:32:30;1.90;;;1.10;;
651;SDS011;310;48.490;9.200;2023-04-09T03:34:56;2.17;;;1.37;;
651;SDS011;310;48.490;9.200;2023-04-09T03:37:21;2.50;;;1.60;;
651;SDS011;310;48.490;9.200;2023-04-09T03:39:47;2.03;;;1.30;;
651;SDS011;310;48.490;9.200;2023-04-09T03:42:12;2.00;;;1.30;;
651;SDS011;310;48.490;9.200;2023-04-09T03:44:38;2.00;;;1.30;;
651;SDS011;310;48.490;9.200;2023-04-09T03:47:04;2.30;;;1.60;;
651;SDS011;310;48.490;9.200;2023-04-09T03:49:30;2.20;;;1.47;;
651;SDS011;310;48.490;9.200;2023-04-09T03:51:55;2.10;;;1.30;;
651;SDS011;310;48.490;9.200;2023-04-09T03:54:21;2.30;;;1.50;;
651;SDS011;310;48.490;9.200;2023-04-09T03:56:47;2.13;;;1.30;;
651;SDS011;310;48.490;9.200;2023-04-09T03:59:12;2.40;;;1.50;;
651;SDS011;310;48.490;9.200;2023-04-09T04:01:38;2.20;;;1.20;;
651;SDS011;310;48.490;9.200;2023-04-09T04:04:03;2.43;;;1.63;;
651;SDS011;310;48.490;9.200;2023-04-09T04:06:31;2.23;;;1.53;;
651;SDS011;310;48.490;9.200;2023-04-09T04:08:59;2.00;;;1.20;;
651;SDS011;310;48.490;9.200;2023-04-09T04:11:25;1.90;;;1.20;;
651;SDS011;310;48.490;9.200;2023-04-09T04:13:50;2.00;;;1.20;;
651;SDS011;310;48.490;9.200;2023-04-09T04:16:16;2.10;;;1.50;;
651;SDS011;310;48.490;9.200;2023-04-09T04:18:41;2.83;;;1.60;;
651;SDS011;310;48.490;9.200;2023-04-09T04:21:11;2.00;;;1.30;;
651;SDS011;310;48.490;9.200;2023-04-09T04:23:38;2.40;;;1.37;;
651;SDS011;310;48.490;9.200;2023-04-09T04:26:06;2.00;;;1.30;;
651;SDS011;310;48.490;9.200;2023-04-09T04:28:35;2.40;;;1.70;;
651;SDS011;310;48.490;9.200;2023-04-09T04:31:01;2.00;;;1.30;;
651;SDS011;310;48.490;9.200;2023-04-09T04:33:27;2.43;;;1.30;;
651;SDS011;310;48.490;9.200;2023-04-09T04:35:52;3.43;;;1.77;;
651;SDS011;310;48.490;9.200;2023-04-09T04:38:18;2.70;;;2.00;;
651;SDS011;310;48.490;9.200;2023-04-09T04:40:44;4.40;;;2.53;;
651;SDS011;310;48.490;9.200;2023-04-09T04:43:10;2.30;;;1.60;;
651;SDS011;310;48.490;9.200;2023-04-09T04:45:35;2.83;;;1.70;;
651;SDS011;310;48.490;9.200;2023-04-09T04:48:01;2.17;;;1.40;;
651;SDS011;310;48.490;9.200;2023-04-09T04:50:26;1.93;;;1.10;;
651;SDS011;310;48.490;9.200;2023-04-09T04:52:52;2.80;;;1.73;;
651;SDS011;310;48.490;9.200;2023-04-09T04:55:17;1.93;;;1.23;;
651;SDS011;310;48.490;9.200;2023-04-09T04:57:43;2.30;;;1.70;;
651;SDS011;310;48.490;9.200;2023-04-09T05:00:09;2.50;;;1.70;;
651;SDS011;310;48.490;9.200;2023-04-09T05:02:35;2.53;;;1.63;;
651;SDS011;310;48.490;9.200;2023-04-09T05:05:00;2.60;;;1.83;;
651;SDS011;310;48.490;9.200;2023-04-09T05:07:26;2.47;;;1.63;;
651;SDS011;310;48.490;9.200;2023-04-09T05:09:51;2.00;;;1.37;;
651;SDS011;310;48.490;9.200;2023-04-09T05:12:17;2.00;;;1.20;;
651;SDS011;310;48.490;9.200;2023-04-09T05:14:43;2.20;;;1.50;;
651;SDS011;310;48.490;9.200;2023-04-09T05:17:08;2.20;;;1.43;;
651;SDS011;310;48.490;9.200;2023-04-09T05:19:34;2.10;;;1.50;;
651;SDS011;310;48.490;9.200;2023-04-09T05:21:59;2.30;;;1.60;;
651;SDS011;310;48.490;9.200;2023-04-09T05:24:25;2.57;;;1.70;;
651;SDS011;310;48.490;9.200;2023-04-09T05:26:51;2.30;;;1.63;;
651;SDS011;310;48.490;9.200;2023-04-09T05:29:16;1.90;;;1.20;;
651;SDS011;310;48.490;9.200;2023-04-09T05:31:42;2.40;;;1.50;;
651;SDS011;310;48.490;9.200;2023-04-09T05:34:08;2.00;;;1.20;;
651;SDS011;310;48.490;9.200;2023-04-09T05:36:33;1.90;;;1.17;;
651;SDS011;310;48.490;9.200;2023-04-09T05:38:59;2.03;;;1.33;;
651;SDS011;310;48.490;9.200;2023-04-09T05:41:24;2.10;;;1.50;;
651;SDS011;310;48.490;9.200;2023-04-09T05:43:50;2.87;;;1.67;;
651;SDS011;310;48.490;9.200;2023-04-09T05:46:16;2.23;;;1.50;;
651;SDS011;310;48.490;9.200;2023-04-09T05:48:41;2.63;;;1.70;;
651;SDS011;310;48.490;9.200;2023-04-09T05:51:07;2.00;;;1.40;;
651;SDS011;310;48.490;9.200;2023-04-09T05:53:33;2.20;;;1.50;;
651;SDS011;310;48.490;9.200;2023-04-09T05:55:59;2.30;;;1.50;;
651;SDS011;310;48.490;9.200;2023-04-09T05:58:27;1.90;;;1.30;;
651;SDS011;310;48.490;9.200;2023-04-09T06:00:53;4.53;;;1.60;;
651;SDS011;310;48.490;9.200;2023-04-09T06:03:19;2.10;;;1.40;;
651;SDS011;310;48.490;9.200;2023-04-09T06:05:44;1.97;;;1.37;;
651;SDS011;310;48.490;9.200;2023-04-09T06:08:10;1.77;;;1.13;;
651;SDS011;310;48.490;9.200;2023-04-09T06:10:38;2.00;;;1.60;;
651;SDS011;310;48.490;9.200;2023-04-09T06:13:03;3.90;;;1.60;;
651;SDS011;310;48.490;9.200;2023-04-09T06:15:30;2.30;;;1.50;;
651;SDS011;310;48.490;9.200;2023-04-09T06:17:55;2.23;;;1.50;;
651;SDS011;310;48.490;9.200;2023-04-09T06:20:21;1.80;;;1.30;;
651;SDS011;310;48.490;9.200;2023-04-09T06:22:46;2.30;;;1.43;;
651;SDS011;310;48.490;9.200;2023-04-09T06:25:12;2.00;;;1.30;;
651;SDS011;310;48.490;9.200;2023-04-09T06:27:38;1.90;;;1.30;;
651;SDS011;310;48.490;9.200;2023-04-09T06:30:03;2.30;;;1.80;;
651;SDS011;310;48.490;9.200;2023-04-09T06:32:29;2.80;;;1.80;;
651;SDS011;310;48.490;9.200;2023-04-09T06:34:55;2.57;;;1.43;;
651;SDS011;310;48.490;9.200;2023-04-09T06:37:21;2.17;;;1.50;;
651;SDS011;310;48.490;9.200;2023-04-09T06:39:46;2.20;;;1.53;;
651;SDS011;310;48.490;9.200;2023-04-09T06:42:12;2.20;;;1.40;;
651;SDS011;310;48.490;9.200;2023-04-09T06:44:37;2.53;;;1.30;;
651;SDS011;310;48.490;9.200;2023-04-09T06:47:03;1.93;;;1.40;;
651;SDS011;310;48.490;9.200;2023-04-09T06:49:28;2.27;;;1.50;;
651;SDS011;310;48.490;9.200;2023-04-09T06:51:54;2.00;;;1.47;;
651;SDS011;310;48.490;9.200;2023-04-09T06:54:20;2.67;;;1.63;;
651;SDS011;310;48.490;9.200;2023-04-09T06:56:45;1.97;;;1.30;;
651;SDS011;310;48.490;9.200;2023-04-09T06:59:11;2.50;;;1.50;;
651;SDS011;310;48.490;9.200;2023-04-09T07:01:37;1.83;;;1.27;;
651;SDS011;310;48.490;9.200;2023-04-09T07:04:03;2.17;;;1.37;;
651;SDS011;310;48.490;9.200;2023-04-09T07:06:29;2.10;;;1.40;;
651;SDS011;310;48.490;9.200;2023-04-09T07:08:55;2.30;;;1.67;;
651;SDS011;310;48.490;9.200;2023-04-09T07:11:20;1.80;;;1.23;;
651;SDS011;310;48.490;9.200;2023-04-09T07:13:46;1.90;;;1.30;;
651;SDS011;310;48.490;9.200;2023-04-09T07:16:12;1.93;;;1.40;;
651;SDS011;310;48.490;9.200;2023-04-09T07:18:37;2.03;;;1.20;;
651;SDS011;310;48.490;9.200;2023-04-09T07:21:03;2.10;;;1.37;;
651;SDS011;310;48.490;9.200;2023-04-09T07:23:29;2.20;;;1.30;;
651;SDS011;310;48.490;9.200;2023-04-09T07:26:00;1.90;;;1.20;;
651;SDS011;310;48.490;9.200;2023-04-09T07:28:28;3.07;;;1.60;;
651;SDS011;310;48.490;9.200;2023-04-09T07:30:54;1.80;;;1.30;;
651;SDS011;310;48.490;9.200;2023-04-09T07:33:20;1.97;;;1.30;;
651;SDS011;310;48.490;9.200;2023-04-09T07:35:46;2.00;;;1.40;;
651;SDS011;310;48.490;9.200;2023-04-09T07:38:11;2.00;;;1.40;;
651;SDS011;310;48.490;9.200;2023-04-09T07:40:37;3.00;;;1.97;;
651;SDS011;310;48.490;9.200;2023-04-09T07:43:03;2.23;;;1.30;;
651;SDS011;310;48.490;9.200;2023-04-09T07:45:28;1.90;;;1.30;;
651;SDS011;310;48.490;9.200;2023-04-09T07:47:54;1.90;;;1.40;;
651;SDS011;310;48.490;9.200;2023-04-09T07:50:19;2.10;;;1.47;;
651;SDS011;310;48.490;9.200;2023-04-09T07:52:45;1.90;;;1.30;;
651;SDS011;310;48.490;9.200;2023-04-09T07:55:11;2.10;;;1.50;;
651;SDS011;310;48.490;9.200;2023-04-09T07:57:37;2.33;;;1.60;;
651;SDS011;310;48.490;9.200;2023-04-09T08:00:03;2.03;;;1.43;;
651;SDS011;310;48.490;9.200;2023-04-09T08:02:30;2.97;;;1.87;;
651;SDS011;310;48.490;9.200;2023-04-09T08:04:56;2.00;;;1.30;;
651;SDS011;310;48.490;9.200;2023-04-09T08:07:22;2.00;;;1.30;;
651;SDS011;310;48.490;9.200;2023-04-09T08:09:47;2.40;;;1.60;;
651;SDS011;310;48.490;9.200;2023-04-09T08:12:14;1.83;;;1.20;;
651;SDS011;310;48.490;9.200;2023-04-09T08:14:40;2.10;;;1.47;;
651;SDS011;310;48.490;9.200;2023-04-09T08:17:05;2.30;;;1.43;;
651;SDS011;310;48.490;9.200;2023-04-09T08:19:31;2.57;;;1.67;;
651;SDS011;310;48.490;9.200;2023-04-09T08:21:57;1.90;;;1.20;;
651;SDS011;310;48.490;9.200;2023-04-09T08:24:22;2.00;;;1.30;;
651;SDS011;310;48.490;9.200;2023-04-09T08:26:48;2.10;;;1.30;;
651;SDS011;310;48.490;9.200;2023-04-09T08:29:14;1.90;;;1.20;;
651;SDS011;310;48.490;9.200;2023-04-09T08:31:40;2.67;;;2.00;;
651;SDS011;310;48.490;9.200;2023-04-09T08:34:05;2.00;;;1.30;;
651;SDS011;310;48.490;9.200;2023-04-09T08:36:32;2.00;;;1.30;;
651;SDS011;310;48.490;9.200;2023-04-09T08:38:59;1.97;;;1.27;;
651;SDS011;310;48.490;9.200;2023-04-09T08:41:25;2.00;;;1.40;;
651;SDS011;310;48.490;9.200;2023-04-09T08:43:54;2.20;;;1.50;;
651;SDS011;310;48.490;9.200;2023-04-09T08:46:20;2.10;;;1.30;;
651;SDS011;310;48.490;9.200;2023-04-09T08:48:47;1.90;;;1.20;;
651;SDS011;310;48.490;9.200;2023-04-09T08:51:14;1.90;;;1.20;;
651;SDS011;310;48.490;9.200;2023-04-09T08:53:57;2.10;;;1.30;;
651;SDS011;310;48.490;9.200;2023-04-09T08:56:24;2.10;;;1.50;;
651;SDS011;310;48.490;9.200;2023-04-09T08:58:50;2.10;;;1.37;;
651;SDS011;310;48.490;9.200;2023-04-09T09:01:24;2.17;;;1.40;;
651;SDS011;310;48.490;9.200;2023-04-09T09:03:52;1.90;;;1.20;;
651;SDS011;310;48.490;9.200;2023-04-09T09:06:22;2.33;;;1.43;;
651;SDS011;310;48.490;9.200;2023-04-09T09:09:00;1.90;;;1.20;;
651;SDS011;310;48.490;9.200;2023-04-09T09:11:37;1.90;;;1.20;;
651;SDS011;310;48.490;9.200;2023-04-09T09:14:07;2.10;;;1.23;;
651;SDS011;310;48.490;9.200;2023-04-09T09:16:34;4.30;;;2.30;;
651;SDS011;310;48.490;9.200;2023-04-09T09:19:04;2.20;;;1.47;;
651;SDS011;310;48.490;9.200;2023-04-09T09:21:29;1.97;;;1.30;;
651;SDS011;310;48.490;9.200;2023-04-09T09:23:55;3.03;;;1.77;;
651;SDS011;310;48.490;9.200;2023-04-09T09:26:25;2.20;;;1.50;;
651;SDS011;310;48.490;9.200;2023-04-09T09:28:53;2.93;;;1.63;;
651;SDS011;310;48.490;9.200;2023-04-09T09:31:19;1.90;;;1.30;;
651;SDS011;310;48.490;9.200;2023-04-09T09:33:47;2.13;;;1.43;;
651;SDS011;310;48.490;9.200;2023-04-09T09:36:14;2.10;;;1.50;;
651;SDS011;310;48.490;9.200;2023-04-09T09:41:16;2.47;;;1.47;;
651;SDS011;310;48.490;9.200;2023-04-09T09:43:42;2.20;;;1.50;;
651;SDS011;310;48.490;9.200;2023-04-09T09:46:08;2.10;;;1.50;;
651;SDS011;310;48.490;9.200;2023-04-09T09:48:35;2.07;;;1.47;;
651;SDS011;310;48.490;9.200;2023-04-09T09:51:02;2.10;;;1.40;;
651;SDS011;310;48.490;9.200;2023-04-09T09:53:32;2.00;;;1.40;;
651;SDS011;310;48.490;9.200;2023-04-09T09:56:00;2.00;;;1.40;;
651;SDS011;310;48.490;9.200;2023-04-09T09:58:46;1.80;;;1.20;;
651;SDS011;310;48.490;9.200;2023-04-09T10:01:19;2.10;;;1.57;;
651;SDS011;310;48.490;9.200;2023-04-09T10:03:47;1.83;;;1.17;;
651;SDS011;310;48.490;9.200;2023-04-09T10:06:15;1.90;;;1.23;;
651;SDS011;310;48.490;9.200;2023-04-09T10:08:41;1.90;;;1.30;;
651;SDS011;310;48.490;9.200;2023-04-09T10:11:08;1.90;;;1.20;;
651;SDS011;310;48.490;9.200;2023-04-09T10:13:34;2.00;;;1.60;;
651;SDS011;310;48.490;9.200;2023-04-09T10:16:03;2.10;;;1.60;;
651;SDS011;310;48.490;9.200;2023-04-09T10:18:31;2.20;;;1.40;;
651;SDS011;310;48.490;9.200;2023-04-09T10:21:08;1.90;;;1.23;;
651;SDS011;310;48.490;9.200;2023-04-09T10:23:41;2.63;;;1.63;;
651;SDS011;310;48.490;9.200;2023-04-09T10:26:08;2.00;;;1.30;;
651;SDS011;310;48.490;9.200;2023-04-09T10:28:36;2.37;;;1.60;;
651;SDS011;310;48.490;9.200;2023-04-09T10:31:03;1.97;;;1.37;;
651;SDS011;310;48.490;9.200;2023-04-09T10:33:29;2.57;;;1.60;;
651;SDS011;310;48.490;9.200;2023-04-09T10:35:59;4.70;;;1.37;;
651;SDS011;310;48.490;9.200;2023-04-09T10:38:38;1.90;;;1.30;;
651;SDS011;310;48.490;9.200;2023-04-09T10:41:06;2.73;;;1.30;;
651;SDS011;310;48.490;9.200;2023-04-09T10:43:32;2.43;;;1.50;;
651;SDS011;310;48.490;9.200;2023-04-09T10:46:00;1.80;;;1.10;;
651;SDS011;310;48.490;9.200;2023-04-09T10:48:28;2.20;;;1.53;;
651;SDS011;310;48.490;9.200;2023-04-09T10:50:57;2.03;;;1.40;;
651;SDS011;310;48.490;9.200;2023-04-09T10:53:24;2.20;;;1.40;;
651;SDS011;310;48.490;9.200;2023-04-09T10:55:51;2.27;;;1.40;;
651;SDS011;310;48.490;9.200;2023-04-09T10:58:18;2.17;;;1.40;;
651;SDS011;310;48.490;9.200;2023-04-09T11:00:44;2.70;;;1.60;;
651;SDS011;310;48.490;9.200;2023-04-09T11:08:22;2.60;;;1.70;;
651;SDS011;310;48.490;9.200;2023-04-09T11:10:48;2.27;;;1.40;;
651;SDS011;310;48.490;9.200;2023-04-09T11:13:14;2.40;;;1.60;;
651;SDS011;310;48.490;9.200;2023-04-09T11:15:41;2.30;;;1.40;;
651;SDS011;310;48.490;9.200;2023-04-09T11:18:07;2.97;;;1.63;;
651;SDS011;310;48.490;9.200;2023-04-09T11:20:37;2.73;;;1.70;;
651;SDS011;310;48.490;9.200;2023-04-09T11:23:04;2.30;;;1.40;;
651;SDS011;310;48.490;9.200;2023-04-09T11:25:30;2.60;;;1.43;;
651;SDS011;310;48.490;9.200;2023-04-09T11:27:57;2.67;;;1.40;;
651;SDS011;310;48.490;9.200;2023-04-09T11:30:23;2.90;;;1.50;;
651;SDS011;310;48.490;9.200;2023-04-09T11:32:49;3.87;;;1.87;;
651;SDS011;310;48.490;9.200;2023-04-09T11:35:16;3.70;;;1.40;;
651;SDS011;310;48.490;9.200;2023-04-09T11:37:45;2.80;;;1.40;;
651;SDS011;310;48.490;9.200;2023-04-09T11:42:48;3.00;;;1.67;;
651;SDS011;310;48.490;9.200;2023-04-09T11:45:15;2.80;;;1.40;;
651;SDS011;310;48.490;9.200;2023-04-09T11:47:41;2.80;;;1.40;;
651;SDS011;310;48.490;9.200;2023-04-09T11:50:09;2.70;;;1.40;;
651;SDS011;310;48.490;9.200;2023-04-09T11:52:36;2.90;;;1.70;;
651;SDS011;310;48.490;9.200;2023-04-09T11:55:02;2.53;;;1.30;;
651;SDS011;310;48.490;9.200;2023-04-09T11:57:38;2.70;;;1.50;;
651;SDS011;310;48.490;9.200;2023-04-09T12:00:23;2.87;;;1.60;;
651;SDS011;310;48.490;9.200;2023-04-09T12:02:50;2.80;;;1.40;;
651;SDS011;310;48.490;9.200;2023-04-09T12:05:23;3.00;;;1.30;;
651;SDS011;310;48.490;9.200;2023-04-09T12:07:50;4.77;;;1.80;;
651;SDS011;310;48.490;9.200;2023-04-09T12:10:16;3.60;;;1.60;;
651;SDS011;310;48.490;9.200;2023-04-09T12:12:43;4.03;;;1.70;;
651;SDS011;310;48.490;9.200;2023-04-09T12:15:32;3.57;;;1.50;;
651;SDS011;310;48.490;9.200;2023-04-09T12:17:57;4.00;;;1.70;;
651;SDS011;310;48.490;9.200;2023-04-09T12:20:27;4.93;;;1.80;;
651;SDS011;310;48.490;9.200;2023-04-09T12:22:53;4.17;;;1.63;;
651;SDS011;310;48.490;9.200;2023-04-09T12:25:19;4.80;;;1.80;;
651;SDS011;310;48.490;9.200;2023-04-09T12:27:44;4.23;;;1.53;;
651;SDS011;310;48.490;9.200;2023-04-09T12:30:10;4.80;;;1.67;;
651;SDS011;310;48.490;9.200;2023-04-09T12:32:36;6.13;;;2.33;;
651;SDS011;310;48.490;9.200;2023-04-09T12:35:02;4.70;;;1.63;;
651;SDS011;310;48.490;9.200;2023-04-09T12:37:28;4.90;;;1.53;;
651;SDS011;310;48.490;9.200;2023-04-09T12:39:54;4.47;;;1.60;;
651;SDS011;310;48.490;9.200;2023-04-09T12:42:20;4.63;;;1.80;;
651;SDS011;310;48.490;9.200;2023-04-09T12:44:45;4.30;;;1.60;;
651;SDS011;310;48.490;9.200;2023-04-09T12:47:11;4.10;;;1.43;;
651;SDS011;310;48.490;9.200;2023-04-09T12:49:37;4.90;;;2.07;;
651;SDS011;310;48.490;9.200;2023-04-09T12:52:03;3.93;;;1.30;;
651;SDS011;310;48.490;9.200;2023-04-09T12:54:28;4.50;;;1.50;;
651;SDS011;310;48.490;9.200;2023-04-09T12:56:54;4.80;;;1.70;;
651;SDS011;310;48.490;9.200;2023-04-09T12:59:20;4.10;;;1.30;;
651;SDS011;310;48.490;9.200;2023-04-09T13:01:46;4.80;;;1.40;;
651;SDS011;310;48.490;9.200;2023-04-09T13:04:11;4.00;;;1.50;;
651;SDS011;310;48.490;9.200;2023-04-09T13:06:37;4.10;;;1.60;;
651;SDS011;310;48.490;9.200;2023-04-09T13:09:02;3.93;;;1.53;;
651;SDS011;310;48.490;9.200;2023-04-09T13:11:28;3.80;;;1.50;;
651;SDS011;310;48.490;9.200;2023-04-09T13:13:54;4.70;;;1.70;;
651;SDS011;310;48.490;9.200;2023-04-09T13:16:20;3.57;;;1.50;;
651;SDS011;310;48.490;9.200;2023-04-09T13:18:45;4.10;;;1.53;;
651;SDS011;310;48.490;9.200;2023-04-09T13:21:11;4.50;;;1.90;;
651;SDS011;310;48.490;9.200;2023-04-09T13:23:39;3.40;;;1.20;;
651;SDS011;310;48.490;9.200;2023-04-09T13:26:04;3.83;;;1.70;;
651;SDS011;310;48.490;9.200;2023-04-09T13:28:30;4.43;;;1.77;;
651;SDS011;310;48.490;9.200;2023-04-09T13:30:56;3.97;;;1.60;;
651;SDS011;310;48.490;9.200;2023-04-09T13:33:22;4.40;;;1.60;;
651;SDS011;310;48.490;9.200;2023-04-09T13:35:48;4.60;;;1.53;;
651;SDS011;310;48.490;9.200;2023-04-09T13:38:15;4.83;;;1.63;;
651;SDS011;310;48.490;9.200;2023-04-09T13:40:40;3.80;;;1.30;;
651;SDS011;310;48.490;9.200;2023-04-09T13:43:06;3.73;;;1.33;;
651;SDS011;310;48.490;9.200;2023-04-09T13:45:32;3.80;;;1.53;;
651;SDS011;310;48.490;9.200;2023-04-09T13:47:57;3.20;;;1.40;;
651;SDS011;310;48.490;9.200;2023-04-09T13:50:23;2.90;;;1.50;;
651;SDS011;310;48.490;9.200;2023-04-09T13:52:48;3.13;;;1.77;;
651;SDS011;310;48.490;9.200;2023-04-09T13:55:14;2.90;;;1.70;;
651;SDS011;310;48.490;9.200;2023-04-09T13:57:40;2.83;;;1.57;;
651;SDS011;310;48.490;9.200;2023-04-09T14:00:06;2.57;;;1.50;;
651;SDS011;310;48.490;9.200;2023-04-09T14:02:32;2.77;;;1.67;;
651;SDS011;310;48.490;9.200;2023-04-09T14:04:57;2.77;;;1.63;;
651;SDS011;310;48.490;9.200;2023-04-09T14:07:23;2.17;;;1.30;;
651;SDS011;310;48.490;9.200;2023-04-09T14:09:49;2.03;;;1.37;;
651;SDS011;310;48.490;9.200;2023-04-09T14:12:15;2.63;;;1.50;;
651;SDS011;310;48.490;9.200;2023-04-09T14:14:41;1.93;;;1.40;;
651;SDS011;310;48.490;9.200;2023-04-09T14:17:07;2.40;;;1.50;;
651;SDS011;310;48.490;9.200;2023-04-09T14:19:32;3.27;;;1.57;;
651;SDS011;310;48.490;9.200;2023-04-09T14:21:58;2.60;;;1.50;;
651;SDS011;310;48.490;9.200;2023-04-09T14:24:23;2.40;;;1.30;;
651;SDS011;310;48.490;9.200;2023-04-09T14:26:49;1.90;;;1.20;;
651;SDS011;310;48.490;9.200;2023-04-09T14:29:17;2.27;;;1.57;;
651;SDS011;310;48.490;9.200;2023-04-09T14:31:43;2.60;;;1.50;;
651;SDS011;310;48.490;9.200;2023-04-09T14:34:10;3.20;;;1.63;;
651;SDS011;310;48.490;9.200;2023-04-09T14:36:36;2.47;;;1.30;;
651;SDS011;310;48.490;9.200;2023-04-09T14:39:02;2.90;;;1.37;;
651;SDS011;310;48.490;9.200;2023-04-09T14:41:28;3.07;;;1.30;;
651;SDS011;310;48.490;9.200;2023-04-09T14:43:53;3.60;;;1.50;;
651;SDS011;310;48.490;9.200;2023-04-09T14:46:19;4.07;;;1.47;;
651;SDS011;310;48.490;9.200;2023-04-09T14:48:46;4.23;;;1.40;;
651;SDS011;310;48.490;9.200;2023-04-09T14:51:11;4.67;;;1.23;;
651;SDS011;310;48.490;9.200;2023-04-09T14:53:37;4.80;;;1.40;;
651;SDS011;310;48.490;9.200;2023-04-09T14:56:03;5.23;;;1.50;;
651;SDS011;310;48.490;9.200;2023-04-09T14:58:28;4.60;;;1.50;;
651;SDS011;310;48.490;9.200;2023-04-09T15:00:54;4.97;;;1.60;;
651;SDS011;310;48.490;9.200;2023-04-09T15:03:20;5.10;;;1.70;;
651;SDS011;310;48.490;9.200;2023-04-09T15:05:46;5.30;;;1.70;;
651;SDS011;310;48.490;9.200;2023-04-09T15:08:12;5.30;;;1.60;;
651;SDS011;310;48.490;9.200;2023-04-09T15:10:37;5.07;;;1.50;;
651;SDS011;310;48.490;9.200;2023-04-09T15:13:03;5.03;;;1.53;;
651;SDS011;310;48.490;9.200;2023-04-09T15:15:29;4.90;;;1.43;;
651;SDS011;310;48.490;9.200;2023-04-09T15:17:55;4.90;;;1.53;;
651;SDS011;310;48.490;9.200;2023-04-09T15:20:21;4.70;;;1.43;;
651;SDS011;310;48.490;9.200;2023-04-09T15:22:46;5.40;;;1.93;;
651;SDS011;310;48.490;9.200;2023-04-09T15:25:12;5.07;;;1.83;;
651;SDS011;310;48.490;9.200;2023-04-09T15:27:38;5.40;;;1.60;;
651;SDS011;310;48.490;9.200;2023-04-09T15:30:03;4.70;;;1.60;;
651;SDS011;310;48.490;9.200;2023-04-09T15:32:30;5.43;;;2.07;;
651;SDS011;310;48.490;9.200;2023-04-09T15:34:56;4.40;;;1.30;;
651;SDS011;310;48.490;9.200;2023-04-09T15:37:22;4.50;;;1.50;;
651;SDS011;310;48.490;9.200;2023-04-09T15:39:47;4.43;;;1.40;;
651;SDS011;310;48.490;9.200;2023-04-09T15:42:13;4.40;;;1.50;;
651;SDS011;310;48.490;9.200;2023-04-09T15:44:44;4.20;;;1.47;;
651;SDS011;310;48.490;9.200;2023-04-09T15:47:10;4.40;;;1.70;;
651;SDS011;310;48.490;9.200;2023-04-09T15:49:35;4.00;;;1.40;;
651;SDS011;310;48.490;9.200;2023-04-09T15:52:01;4.10;;;1.50;;
651;SDS011;310;48.490;9.200;2023-04-09T15:54:27;4.93;;;1.90;;
651;SDS011;310;48.490;9.200;2023-04-09T15:56:52;3.80;;;1.33;;
651;SDS011;310;48.490;9.200;2023-04-09T15:59:18;4.33;;;1.50;;
651;SDS011;310;48.490;9.200;2023-04-09T16:01:43;4.30;;;1.93;;